createdAt,value
2022-11-02T00:01:40.869Z,5.93
2022-11-02T00:04:08.147Z,5.13
2022-11-02T00:06:35.042Z,5.70
2022-11-02T00:09:01.980Z,5.47
2022-11-02T00:11:28.775Z,5.10
2022-11-02T00:13:55.450Z,4.83
2022-11-02T00:16:23.133Z,5.23
2022-11-02T00:18:53.647Z,5.40
2022-11-02T00:21:21.622Z,6.30
2022-11-02T00:23:49.309Z,5.47
2022-11-02T00:26:16.794Z,5.50
2022-11-02T00:28:43.691Z,4.97
2022-11-02T00:31:10.444Z,4.90
2022-11-02T00:33:37.114Z,4.80
2022-11-02T00:36:03.990Z,4.57
2022-11-02T00:38:32.106Z,5.13
2022-11-02T00:40:59.232Z,4.90
2022-11-02T00:43:25.907Z,4.87
2022-11-02T00:45:52.618Z,4.77
2022-11-02T00:48:19.499Z,4.70
2022-11-02T00:50:46.186Z,5.70
2022-11-02T00:53:12.874Z,4.33
2022-11-02T00:55:39.553Z,4.77
2022-11-02T00:58:06.557Z,4.30
2022-11-02T01:00:33.403Z,4.17
2022-11-02T01:03:02.992Z,5.20
2022-11-02T01:05:29.997Z,4.83
2022-11-02T01:07:57.137Z,4.70
2022-11-02T01:10:26.159Z,4.53
2022-11-02T01:12:53.016Z,4.80
2022-11-02T01:15:19.707Z,4.30
2022-11-02T01:17:46.576Z,4.33
2022-11-02T01:20:13.266Z,4.70
2022-11-02T01:22:40.039Z,4.10
2022-11-02T01:25:07.892Z,4.40
2022-11-02T01:27:34.658Z,4.73
2022-11-02T01:30:01.434Z,4.73
2022-11-02T01:32:30.611Z,4.40
2022-11-02T01:34:57.405Z,4.50
2022-11-02T01:37:24.172Z,3.73
2022-11-02T01:39:50.821Z,5.13
2022-11-02T01:42:20.101Z,4.17
2022-11-02T01:44:47.257Z,3.70
2022-11-02T01:47:25.688Z,4.27
2022-11-02T01:50:02.109Z,4.37
2022-11-02T01:52:35.892Z,4.10
2022-11-02T01:55:29.356Z,4.40
2022-11-02T01:58:08.349Z,3.83
2022-11-02T02:00:35.426Z,4.70
2022-11-02T02:03:08.939Z,4.00
2022-11-02T02:05:42.176Z,3.90
2022-11-02T02:08:10.567Z,3.70
2022-11-02T02:10:37.291Z,3.80
2022-11-02T02:13:06.002Z,4.77
2022-11-02T02:15:50.370Z,4.27
2022-11-02T02:18:24.949Z,4.00
2022-11-02T02:21:17.511Z,4.23
2022-11-02T02:24:19.226Z,4.30
2022-11-02T02:27:00.973Z,4.20
2022-11-02T02:29:40.393Z,3.60
2022-11-02T02:32:18.834Z,3.90
2022-11-02T02:34:53.806Z,3.97
2022-11-02T02:37:37.809Z,3.80
2022-11-02T02:40:19.103Z,3.80
2022-11-02T02:43:10.169Z,3.20
2022-11-02T02:46:01.347Z,3.73
2022-11-02T02:48:28.739Z,3.93
2022-11-02T02:51:04.758Z,4.07
2022-11-02T02:53:48.375Z,3.73
2022-11-02T02:56:18.115Z,3.97
2022-11-02T02:58:53.834Z,3.80
2022-11-02T03:01:20.696Z,3.27
2022-11-02T03:03:47.550Z,3.70
2022-11-02T03:06:22.301Z,3.40
2022-11-02T03:09:09.112Z,3.87
2022-11-02T03:11:56.427Z,3.30
2022-11-02T03:14:46.861Z,3.67
2022-11-02T03:17:20.894Z,3.27
2022-11-02T03:19:56.411Z,3.87
2022-11-02T03:22:35.123Z,4.00
2022-11-02T03:25:07.960Z,3.87
2022-11-02T03:27:56.511Z,3.40
2022-11-02T03:30:26.386Z,3.50
2022-11-02T03:33:17.103Z,4.10
2022-11-02T03:36:00.477Z,3.50
2022-11-02T03:38:47.499Z,3.27
2022-11-02T03:41:16.167Z,3.40
2022-11-02T03:43:44.780Z,3.70
2022-11-02T03:46:12.611Z,3.47
2022-11-02T03:48:45.360Z,4.03
2022-11-02T03:51:15.641Z,3.10
2022-11-02T03:53:47.433Z,3.63
2022-11-02T03:56:48.604Z,3.83
2022-11-02T03:59:15.451Z,3.90
2022-11-02T04:01:44.658Z,3.50
2022-11-02T04:04:12.043Z,3.53
2022-11-02T04:06:39.389Z,3.07
2022-11-02T04:09:06.213Z,3.50
2022-11-02T04:11:51.624Z,3.30
2022-11-02T04:14:36.645Z,3.10
2022-11-02T04:17:22.699Z,3.43
2022-11-02T04:19:50.291Z,3.60
2022-11-02T04:22:36.119Z,3.90
2022-11-02T04:25:18.792Z,3.50
2022-11-02T04:27:48.444Z,3.10
2022-11-02T04:30:16.939Z,3.77
2022-11-02T04:33:04.731Z,3.50
2022-11-02T04:35:32.210Z,3.47
2022-11-02T04:38:17.991Z,4.00
2022-11-02T04:40:45.031Z,3.87
2022-11-02T04:43:11.821Z,3.67
2022-11-02T04:45:38.754Z,3.23
2022-11-02T04:48:09.784Z,3.90
2022-11-02T04:50:37.050Z,3.33
2022-11-02T04:53:05.773Z,3.57
2022-11-02T04:55:33.069Z,3.10
2022-11-02T04:57:59.785Z,3.20
2022-11-02T05:00:26.481Z,3.37
2022-11-02T05:02:53.241Z,3.60
2022-11-02T05:05:20.131Z,3.30
2022-11-02T05:07:46.856Z,3.03
2022-11-02T05:10:13.642Z,3.37
2022-11-02T05:12:40.334Z,3.53
2022-11-02T05:15:07.421Z,3.40
2022-11-02T05:17:34.161Z,3.70
2022-11-02T05:20:01.062Z,3.87
2022-11-02T05:22:27.785Z,3.77
2022-11-02T05:24:54.531Z,3.67
2022-11-02T05:27:21.309Z,3.50
2022-11-02T05:29:47.967Z,3.40
2022-11-02T05:32:14.679Z,3.50
2022-11-02T05:34:41.333Z,3.70
2022-11-02T05:37:08.074Z,3.60
2022-11-02T05:39:35.507Z,3.27
2022-11-02T05:42:02.164Z,3.63
2022-11-02T05:44:28.896Z,3.73
2022-11-02T05:46:55.586Z,3.77
2022-11-02T05:49:22.307Z,3.50
2022-11-02T05:51:49.234Z,3.03
2022-11-02T05:54:15.969Z,3.37
2022-11-02T05:56:42.676Z,3.90
2022-11-02T05:59:10.108Z,3.07
2022-11-02T06:01:36.887Z,3.53
2022-11-02T06:04:03.735Z,3.43
2022-11-02T06:06:30.575Z,3.70
2022-11-02T06:08:57.827Z,3.77
2022-11-02T06:11:26.381Z,3.63
2022-11-02T06:13:53.073Z,4.00
2022-11-02T06:16:22.967Z,3.47
2022-11-02T06:18:50.286Z,3.77
2022-11-02T06:21:17.221Z,3.77
2022-11-02T06:23:46.296Z,3.50
2022-11-02T06:26:12.948Z,3.40
2022-11-02T06:28:39.670Z,3.60
2022-11-02T06:31:06.679Z,3.50
2022-11-02T06:33:33.347Z,3.50
2022-11-02T06:36:00.206Z,3.53
2022-11-02T06:38:26.906Z,3.50
2022-11-02T06:41:05.609Z,3.57
2022-11-02T06:43:33.695Z,3.30
2022-11-02T06:46:00.559Z,3.23
2022-11-02T06:48:34.237Z,26.47
2022-11-02T06:51:01.447Z,47.20
2022-11-02T06:53:28.231Z,42.97
2022-11-02T06:55:57.523Z,38.83
2022-11-02T06:58:24.860Z,38.27
2022-11-02T07:00:57.988Z,32.53
2022-11-02T07:03:24.833Z,32.03
2022-11-02T07:05:52.561Z,29.23
2022-11-02T07:08:20.334Z,29.63
2022-11-02T07:10:47.382Z,27.67
2022-11-02T07:13:14.068Z,27.53
2022-11-02T07:15:40.927Z,28.20
2022-11-02T07:18:08.554Z,25.30
2022-11-02T07:20:35.895Z,25.60
2022-11-02T07:23:04.418Z,16.50
2022-11-02T07:25:33.039Z,14.87
2022-11-02T07:28:01.311Z,13.63
2022-11-02T07:30:33.111Z,13.53
2022-11-02T07:32:59.898Z,12.87
2022-11-02T07:35:26.872Z,13.53
2022-11-02T07:38:05.333Z,13.27
2022-11-02T07:40:34.245Z,11.27
2022-11-02T07:43:01.190Z,11.47
2022-11-02T07:45:29.303Z,12.00
2022-11-02T07:47:56.027Z,11.60
2022-11-02T07:50:25.118Z,11.40
2022-11-02T07:52:53.915Z,12.33
2022-11-02T07:55:23.215Z,11.43
2022-11-02T07:58:04.729Z,11.47
2022-11-02T08:00:37.370Z,11.00
2022-11-02T08:03:05.954Z,11.63
2022-11-02T08:05:38.166Z,11.70
2022-11-02T08:08:19.564Z,11.33
2022-11-02T08:10:48.059Z,10.90
2022-11-02T08:13:17.093Z,11.80
2022-11-02T08:15:43.868Z,11.93
2022-11-02T08:18:15.245Z,12.47
2022-11-02T08:20:43.178Z,11.40
2022-11-02T08:23:10.954Z,12.13
2022-11-02T08:25:39.444Z,11.90
2022-11-02T08:28:08.454Z,11.57
2022-11-02T08:30:35.353Z,11.43
2022-11-02T08:33:13.281Z,10.37
2022-11-02T08:35:40.697Z,9.00
2022-11-02T08:38:08.128Z,6.47
2022-11-02T08:40:36.273Z,4.87
2022-11-02T08:43:08.230Z,4.63
2022-11-02T08:46:08.413Z,4.53
2022-11-02T08:48:23.500Z,4.37
2022-11-02T08:50:50.505Z,4.37
2022-11-02T08:53:17.766Z,3.43
2022-11-02T08:55:44.463Z,3.83
2022-11-02T08:58:11.255Z,3.30
2022-11-02T09:00:37.979Z,3.33
2022-11-02T09:03:13.267Z,2.67
2022-11-02T09:05:43.414Z,3.23
2022-11-02T09:08:13.017Z,2.97
2022-11-02T09:10:39.827Z,3.70
2022-11-02T09:13:08.572Z,2.77
2022-11-02T09:15:37.051Z,2.40
2022-11-02T09:18:05.737Z,2.10
2022-11-02T09:20:33.468Z,2.33
2022-11-02T09:23:00.549Z,2.17
2022-11-02T09:25:27.473Z,2.53
2022-11-02T09:27:56.018Z,1.73
2022-11-02T09:30:24.757Z,2.40
2022-11-02T09:33:04.088Z,1.90
2022-11-02T09:35:53.769Z,2.03
2022-11-02T09:38:20.506Z,1.87
2022-11-02T09:41:02.393Z,1.70
2022-11-02T09:43:43.016Z,1.70
2022-11-02T09:46:15.955Z,1.73
2022-11-02T09:48:51.424Z,1.87
2022-11-02T09:51:22.583Z,2.07
2022-11-02T09:54:19.595Z,2.37
2022-11-02T09:56:47.713Z,2.23
2022-11-02T09:59:20.763Z,2.07
2022-11-02T10:01:56.987Z,1.70
2022-11-02T10:04:49.959Z,1.83
2022-11-02T10:07:43.798Z,2.40
2022-11-02T10:10:17.143Z,2.27
2022-11-02T10:12:50.253Z,1.73
2022-11-02T10:15:25.661Z,1.90
2022-11-02T10:17:57.473Z,2.00
2022-11-02T10:20:38.028Z,1.90
2022-11-02T10:23:08.680Z,2.50
2022-11-02T10:25:36.491Z,1.87
2022-11-02T10:28:18.147Z,1.53
2022-11-02T10:30:45.288Z,1.80
2022-11-02T10:33:15.959Z,1.60
2022-11-02T10:36:17.969Z,1.60
2022-11-02T10:39:00.837Z,1.87
2022-11-02T10:41:54.208Z,2.10
2022-11-02T10:44:34.594Z,1.77
2022-11-02T10:47:21.024Z,2.00
2022-11-02T10:50:04.098Z,1.70
2022-11-02T10:52:44.695Z,2.00
2022-11-02T10:55:43.219Z,2.00
2022-11-02T10:58:15.491Z,2.00
2022-11-02T11:00:42.964Z,1.60
2022-11-02T11:03:09.714Z,1.60
2022-11-02T11:05:57.427Z,2.30
2022-11-02T11:08:40.759Z,1.90
2022-11-02T11:11:11.046Z,1.70
2022-11-02T11:16:48.275Z,2.17
2022-11-02T11:22:28.593Z,2.10
2022-11-02T11:25:13.303Z,2.67
2022-11-02T11:28:00.444Z,2.67
2022-11-02T11:30:54.221Z,3.37
2022-11-02T11:33:19.336Z,18.07
2022-11-02T11:35:50.332Z,21.30
2022-11-02T11:38:23.659Z,21.23
2022-11-02T11:40:54.014Z,23.83
2022-11-02T11:43:23.000Z,19.37
2022-11-02T11:46:06.717Z,18.37
2022-11-02T11:48:47.726Z,12.30
2022-11-02T11:51:41.491Z,12.63
2022-11-02T11:54:28.538Z,11.83
2022-11-02T11:57:18.175Z,10.40
2022-11-02T11:59:52.028Z,9.57
2022-11-02T12:02:37.980Z,7.67
2022-11-02T12:05:07.926Z,6.97
2022-11-02T12:07:58.677Z,7.67
2022-11-02T12:10:36.920Z,7.27
2022-11-02T12:13:22.549Z,6.07
2022-11-02T12:16:03.859Z,4.60
2022-11-02T12:18:48.534Z,7.30
2022-11-02T12:21:43.893Z,7.80
2022-11-02T12:24:31.683Z,6.07
2022-11-02T12:27:35.186Z,6.33
2022-11-02T12:30:23.562Z,7.80
2022-11-02T12:33:31.359Z,6.40
2022-11-02T12:36:06.758Z,5.77
2022-11-02T12:38:46.413Z,4.17
2022-11-02T12:41:22.406Z,4.10
2022-11-02T12:43:54.988Z,2.90
2022-11-02T12:46:48.870Z,3.03
2022-11-02T12:49:27.806Z,3.90
2022-11-02T12:52:06.541Z,4.13
2022-11-02T12:54:51.243Z,4.33
2022-11-02T12:57:22.990Z,5.50
2022-11-02T12:59:57.767Z,4.60
2022-11-02T13:02:39.135Z,4.60
2022-11-02T13:05:23.798Z,4.37
2022-11-02T13:08:13.361Z,4.10
2022-11-02T13:10:57.268Z,4.07
2022-11-02T13:13:38.950Z,4.30
2022-11-02T13:16:10.290Z,4.77
2022-11-02T13:18:59.379Z,4.43
2022-11-02T13:21:42.897Z,4.60
2022-11-02T13:24:18.636Z,4.63
2022-11-02T13:26:53.263Z,5.33
2022-11-02T13:29:50.953Z,4.07
2022-11-02T13:32:20.187Z,5.10
2022-11-02T13:34:50.771Z,4.67
2022-11-02T13:37:27.748Z,4.33
2022-11-02T13:39:59.011Z,5.13
2022-11-02T13:42:34.846Z,4.40
2022-11-02T13:45:15.034Z,4.80
2022-11-02T13:48:00.220Z,4.87
2022-11-02T13:50:28.305Z,5.00
2022-11-02T13:53:08.761Z,4.40
2022-11-02T13:55:46.483Z,4.30
2022-11-02T13:58:56.454Z,4.30
2022-11-02T14:01:24.556Z,4.13
2022-11-02T14:04:06.655Z,4.50
2022-11-02T14:06:44.595Z,4.47
2022-11-02T14:09:22.862Z,4.80
2022-11-02T14:11:49.811Z,4.70
2022-11-02T14:14:20.570Z,5.30
2022-11-02T14:16:49.945Z,5.37
2022-11-02T14:19:19.572Z,5.10
2022-11-02T14:21:49.995Z,5.60
2022-11-02T14:24:34.862Z,5.03
2022-11-02T14:27:01.581Z,5.57
2022-11-02T14:29:45.911Z,4.80
2022-11-02T14:32:21.774Z,5.17
2022-11-02T14:35:05.069Z,5.27
2022-11-02T14:37:34.613Z,5.10
2022-11-02T14:40:04.775Z,4.97
2022-11-02T14:42:46.599Z,5.40
2022-11-02T14:45:26.720Z,5.03
2022-11-02T14:47:58.846Z,4.70
2022-11-02T14:50:25.939Z,6.30
2022-11-02T14:53:00.475Z,6.40
2022-11-02T14:55:33.054Z,5.60
2022-11-02T14:58:11.079Z,5.57
2022-11-02T15:00:50.183Z,5.20
2022-11-02T15:03:26.423Z,5.00
2022-11-02T15:06:10.948Z,5.90
2022-11-02T15:08:50.971Z,5.77
2022-11-02T15:12:03.052Z,4.40
2022-11-02T15:14:35.933Z,5.17
2022-11-02T15:17:24.851Z,5.07
2022-11-02T15:19:53.753Z,4.93
2022-11-02T15:22:32.810Z,5.60
2022-11-02T15:25:27.508Z,5.10
2022-11-02T15:28:02.852Z,4.70
2022-11-02T15:30:31.587Z,4.73
2022-11-02T15:33:07.115Z,4.87
2022-11-02T15:35:37.644Z,5.10
2022-11-02T15:38:27.867Z,4.63
2022-11-02T15:41:08.876Z,4.70
2022-11-02T15:44:09.568Z,4.90
2022-11-02T15:46:58.448Z,5.10
2022-11-02T15:50:12.742Z,4.43
2022-11-02T15:53:01.730Z,4.70
2022-11-02T15:55:54.055Z,5.20
2022-11-02T15:58:41.497Z,5.00
2022-11-02T16:01:13.691Z,4.20
2022-11-02T16:03:45.592Z,5.10
2022-11-02T16:06:12.784Z,4.50
2022-11-02T16:08:39.562Z,5.00
2022-11-02T16:11:18.634Z,4.50
2022-11-02T16:14:07.970Z,3.93
2022-11-02T16:16:45.318Z,4.40
2022-11-02T16:19:19.997Z,4.10
2022-11-02T16:21:47.953Z,3.90
2022-11-02T16:24:15.231Z,4.63
2022-11-02T16:26:43.534Z,3.87
2022-11-02T16:29:10.951Z,4.53
2022-11-02T16:31:37.992Z,4.33
2022-11-02T16:34:24.679Z,4.30
2022-11-02T16:36:51.652Z,4.13
2022-11-02T16:39:31.854Z,4.30
2022-11-02T16:42:00.470Z,4.00
2022-11-02T16:44:31.157Z,3.97
2022-11-02T16:47:10.968Z,3.67
2022-11-02T16:49:49.905Z,4.30
2022-11-02T16:52:26.439Z,4.20
2022-11-02T16:54:53.155Z,4.27
2022-11-02T16:57:31.866Z,4.60
2022-11-02T17:00:02.452Z,3.83
2022-11-02T17:02:34.366Z,4.17
2022-11-02T17:05:05.901Z,4.40
2022-11-02T17:07:42.816Z,3.70
2022-11-02T17:10:19.997Z,3.90
2022-11-02T17:12:48.734Z,3.83
2022-11-02T17:15:26.672Z,4.07
2022-11-02T17:18:09.020Z,4.17
2022-11-02T17:20:37.859Z,3.50
2022-11-02T17:23:10.654Z,3.50
2022-11-02T17:25:39.498Z,3.87
2022-11-02T17:28:43.459Z,3.90
2022-11-02T17:31:41.258Z,3.47
2022-11-02T17:34:10.662Z,3.83
2022-11-02T17:36:47.613Z,3.67
2022-11-02T17:39:18.950Z,3.93
2022-11-02T17:42:10.972Z,3.40
2022-11-02T17:44:37.655Z,3.57
2022-11-02T17:47:12.860Z,3.43
2022-11-02T17:49:39.635Z,3.63
2022-11-02T17:52:06.994Z,3.27
2022-11-02T17:54:33.692Z,3.67
2022-11-02T17:57:01.835Z,3.37
2022-11-02T17:59:29.055Z,3.90
2022-11-02T18:01:55.877Z,3.30
2022-11-02T18:04:22.830Z,3.40
2022-11-02T18:06:49.554Z,3.00
2022-11-02T18:09:19.668Z,3.77
2022-11-02T18:11:46.604Z,3.33
2022-11-02T18:14:16.659Z,3.40
2022-11-02T18:16:43.955Z,3.20
2022-11-02T18:19:10.696Z,2.70
2022-11-02T18:21:37.496Z,3.10
2022-11-02T18:24:04.290Z,3.30
2022-11-02T18:26:30.976Z,3.00
2022-11-02T18:28:57.726Z,2.60
2022-11-02T18:31:24.596Z,2.67
2022-11-02T18:33:52.849Z,3.00
2022-11-02T18:36:19.684Z,3.13
2022-11-02T18:38:46.371Z,2.80
2022-11-02T18:41:29.563Z,2.57
2022-11-02T18:44:14.974Z,3.00
2022-11-02T18:46:42.432Z,2.90
2022-11-02T18:49:09.260Z,3.20
2022-11-02T18:51:35.972Z,3.30
2022-11-02T18:54:05.293Z,2.93
2022-11-02T18:56:31.989Z,2.70
2022-11-02T18:58:59.055Z,2.80
2022-11-02T19:01:26.832Z,2.50
2022-11-02T19:04:01.310Z,2.37
2022-11-02T19:06:48.341Z,2.90
2022-11-02T19:09:19.182Z,2.83
2022-11-02T19:12:02.955Z,3.10
2022-11-02T19:14:39.423Z,2.90
2022-11-02T19:17:07.747Z,2.97
2022-11-02T19:19:34.889Z,2.87
2022-11-02T19:22:03.086Z,3.00
2022-11-02T19:24:29.821Z,3.30
2022-11-02T19:26:56.634Z,5.67
2022-11-02T19:29:23.379Z,5.30
2022-11-02T19:31:50.117Z,6.37
2022-11-02T19:34:16.930Z,7.90
2022-11-02T19:36:44.151Z,8.10
2022-11-02T19:39:11.138Z,9.30
2022-11-02T19:41:38.756Z,10.23
2022-11-02T19:44:06.155Z,10.27
2022-11-02T19:46:32.960Z,12.17
2022-11-02T19:48:59.773Z,11.90
2022-11-02T19:51:29.483Z,12.27
2022-11-02T19:54:01.433Z,10.50
2022-11-02T19:56:29.884Z,10.43
2022-11-02T19:58:57.113Z,10.90
2022-11-02T20:01:25.990Z,10.80
2022-11-02T20:03:53.809Z,10.40
2022-11-02T20:06:26.419Z,10.00
2022-11-02T20:08:55.692Z,10.13
2022-11-02T20:11:24.857Z,9.67
2022-11-02T20:13:52.107Z,9.20
2022-11-02T20:16:19.822Z,9.87
2022-11-02T20:18:48.607Z,9.00
2022-11-02T20:21:17.589Z,9.37
2022-11-02T20:23:45.571Z,9.50
2022-11-02T20:26:20.777Z,8.40
2022-11-02T20:28:48.372Z,9.70
2022-11-02T20:31:20.788Z,8.30
2022-11-02T20:33:48.220Z,7.97
2022-11-02T20:36:15.853Z,8.57
2022-11-02T20:38:43.428Z,8.57
2022-11-02T20:41:15.852Z,7.93
2022-11-02T20:43:44.693Z,8.60
2022-11-02T20:46:37.189Z,7.80
2022-11-02T20:49:13.865Z,7.23
2022-11-02T20:51:52.258Z,8.03
2022-11-02T20:54:19.857Z,7.83
2022-11-02T20:56:47.543Z,7.77
2022-11-02T20:59:14.470Z,7.53
2022-11-02T21:01:41.704Z,7.13
2022-11-02T21:04:08.641Z,6.30
2022-11-02T21:06:35.364Z,7.60
2022-11-02T21:09:09.005Z,7.60
2022-11-02T21:11:57.284Z,6.37
2022-11-02T21:14:23.999Z,8.07
2022-11-02T21:16:50.679Z,7.57
2022-11-02T21:19:17.367Z,7.80
2022-11-02T21:21:44.972Z,6.63
2022-11-02T21:24:11.841Z,5.23
2022-11-02T21:26:38.861Z,5.10
2022-11-02T21:29:05.623Z,6.30
2022-11-02T21:31:32.340Z,6.27
2022-11-02T21:33:59.135Z,5.00
2022-11-02T21:36:25.824Z,5.80
2022-11-02T21:38:52.578Z,4.90
2022-11-02T21:41:28.893Z,5.00
2022-11-02T21:43:55.942Z,5.27
2022-11-02T21:46:25.381Z,5.03
2022-11-02T21:48:52.441Z,4.93
2022-11-02T21:51:20.661Z,4.77
2022-11-02T21:53:48.750Z,4.90
2022-11-02T21:56:18.393Z,6.10
2022-11-02T21:58:46.548Z,4.57
2022-11-02T22:01:38.044Z,4.77
2022-11-02T22:04:05.934Z,4.87
2022-11-02T22:06:33.435Z,4.23
2022-11-02T22:09:01.098Z,4.30
2022-11-02T22:11:28.234Z,4.90
2022-11-02T22:13:56.869Z,4.80
2022-11-02T22:16:35.272Z,4.30
2022-11-02T22:19:09.917Z,4.13
2022-11-02T22:21:39.503Z,4.10
2022-11-02T22:24:07.013Z,4.20
2022-11-02T22:26:35.734Z,4.30
2022-11-02T22:29:02.762Z,3.93
2022-11-02T22:31:40.243Z,3.97
2022-11-02T22:34:08.354Z,4.10
2022-11-02T22:36:36.888Z,4.53
2022-11-02T22:39:05.761Z,3.33
2022-11-02T22:41:35.125Z,3.70
2022-11-02T22:44:07.658Z,3.10
2022-11-02T22:46:37.652Z,3.43
2022-11-02T22:49:05.241Z,3.40
2022-11-02T22:51:41.012Z,3.43
2022-11-02T22:54:09.981Z,3.43
2022-11-02T22:56:36.656Z,3.40
2022-11-02T22:59:04.567Z,3.10
2022-11-02T23:01:32.337Z,3.50
2022-11-02T23:03:59.353Z,2.80
2022-11-02T23:06:26.152Z,2.47
2022-11-02T23:08:54.640Z,2.90
2022-11-02T23:11:24.372Z,2.43
2022-11-02T23:14:00.848Z,3.20
2022-11-02T23:16:37.194Z,1.90
2022-11-02T23:19:27.706Z,2.50
2022-11-02T23:22:24.681Z,2.23
2022-11-02T23:25:10.574Z,2.33
2022-11-02T23:27:58.741Z,2.40
2022-11-02T23:30:46.808Z,1.97
2022-11-02T23:33:13.838Z,2.07
2022-11-02T23:35:59.074Z,1.97
2022-11-02T23:38:45.948Z,2.10
2022-11-02T23:41:12.651Z,2.47
2022-11-02T23:43:39.554Z,2.27
2022-11-02T23:46:06.957Z,2.53
2022-11-02T23:48:33.707Z,2.00
2022-11-02T23:51:19.768Z,1.80
2022-11-02T23:54:05.417Z,2.60
2022-11-02T23:56:43.047Z,2.03
2022-11-02T23:59:14.807Z,1.90
